Time;durP1;ratioP1;P1;durP2;ratioP2;P2;SDS_P1;SDS_P2;PMS_P1;PMS_P2;Temp;Humidity;BMP_temperature;BMP_pressure;BME280_temperature;BME280_humidity;BME280_pressure;Samples;Min_cycle;Max_cycle;Signal;HPM_P1;HPM_P2
2022/09/13 00:00:05;;;;;;;0.40;0.40;;;14.00;99.90;;;;;;5016343;28;20595;-69
2022/09/13 00:02:31;;;;;;;0.67;0.67;;;13.90;99.90;;;;;;5016591;28;20210;-72
2022/09/13 00:04:57;;;;;;;0.40;0.40;;;14.00;99.90;;;;;;5016634;28;20440;-70
2022/09/13 00:07:23;;;;;;;0.40;0.40;;;13.90;99.90;;;;;;5016462;28;20778;-70
2022/09/13 00:09:48;;;;;;;0.47;0.47;;;14.10;99.90;;;;;;5016177;28;20225;-72
2022/09/13 00:12:14;;;;;;;0.70;0.70;;;14.10;99.90;;;;;;5016645;28;20175;-69
2022/09/13 00:14:40;;;;;;;0.30;0.30;;;14.10;99.90;;;;;;5016225;28;20245;-70
2022/09/13 00:17:06;;;;;;;0.60;0.60;;;14.10;99.90;;;;;;5016309;28;20424;-70
2022/09/13 00:19:32;;;;;;;0.40;0.40;;;14.00;99.90;;;;;;5016042;28;20616;-71
2022/09/13 00:21:57;;;;;;;0.50;0.50;;;14.10;99.90;;;;;;5016145;28;20998;-72
2022/09/13 00:24:23;;;;;;;0.97;0.90;;;14.20;99.90;;;;;;5016279;28;20656;-70
2022/09/13 00:26:48;;;;;;;0.30;0.30;;;14.20;99.90;;;;;;5016389;28;20651;-68
2022/09/13 00:29:14;;;;;;;0.50;0.50;;;14.20;99.90;;;;;;5015884;28;20195;-71
2022/09/13 00:31:40;;;;;;;0.60;0.60;;;14.20;99.90;;;;;;5015877;28;20187;-72
2022/09/13 00:34:05;;;;;;;0.43;0.43;;;14.10;99.90;;;;;;5015997;28;20533;-70
2022/09/13 00:36:31;;;;;;;0.60;0.60;;;14.00;99.90;;;;;;5015877;28;20181;-71
2022/09/13 00:38:58;;;;;;;0.70;0.70;;;13.90;99.90;;;;;;5014494;28;20635;-72
2022/09/13 00:41:24;;;;;;;0.83;0.83;;;13.80;99.90;;;;;;5015523;28;20294;-71
2022/09/13 00:43:53;;;;;;;0.77;0.77;;;13.70;99.90;;;;;;5015795;28;20449;-70
2022/09/13 00:46:38;;;;;;;2.10;0.67;;;13.70;99.90;;;;;;5015882;28;20175;-71
2022/09/13 00:49:30;;;;;;;0.40;0.40;;;13.80;99.90;;;;;;5015269;28;20437;-72
2022/09/13 00:52:03;;;;;;;0.50;0.50;;;13.90;99.90;;;;;;5015421;28;20496;-70
2022/09/13 00:54:35;;;;;;;0.40;0.40;;;13.90;99.90;;;;;;5015639;28;20421;-72
2022/09/13 00:57:03;;;;;;;0.40;0.40;;;13.90;99.90;;;;;;5015703;28;20410;-70
2022/09/13 00:59:38;;;;;;;0.40;0.40;;;13.80;99.90;;;;;;5015338;28;20473;-69
2022/09/13 01:02:04;;;;;;;0.57;0.47;;;13.70;99.90;;;;;;5013993;28;20476;-71
2022/09/13 01:04:34;;;;;;;0.50;0.50;;;13.60;99.90;;;;;;5015123;28;20403;-70
2022/09/13 01:07:07;;;;;;;0.60;0.60;;;13.70;99.90;;;;;;5015162;28;20445;-71
2022/09/13 01:09:36;;;;;;;0.40;0.40;;;13.60;99.90;;;;;;5014947;28;20933;-69
2022/09/13 01:12:26;;;;;;;0.50;0.50;;;13.70;99.90;;;;;;5015117;28;20497;-69
2022/09/13 01:14:53;;;;;;;0.40;0.40;;;13.80;99.90;;;;;;5015055;28;20434;-71
2022/09/13 01:17:18;;;;;;;0.40;0.40;;;14.10;99.90;;;;;;5014458;28;20406;-70
2022/09/13 01:19:44;;;;;;;0.60;0.50;;;13.90;99.90;;;;;;5013564;28;20420;-71
2022/09/13 01:22:27;;;;;;;0.93;0.90;;;13.80;99.90;;;;;;5014876;28;20293;-70
2022/09/13 01:25:02;;;;;;;0.63;0.63;;;13.60;99.90;;;;;;5013427;28;20254;-69
2022/09/13 01:27:50;;;;;;;0.77;0.77;;;13.40;99.90;;;;;;5015425;28;20401;-69
2022/09/13 01:30:21;;;;;;;0.60;0.60;;;13.60;99.90;;;;;;5014891;28;20933;-72
2022/09/13 01:33:09;;;;;;;0.40;0.40;;;13.70;99.90;;;;;;5014986;28;20428;-70
2022/09/13 01:35:59;;;;;;;0.40;0.40;;;13.70;99.90;;;;;;5015001;28;20410;-71
2022/09/13 01:38:57;;;;;;;0.50;0.40;;;13.80;99.90;;;;;;5013585;28;20442;-70
2022/09/13 01:41:49;;;;;;;0.50;0.50;;;13.80;99.90;;;;;;5014527;28;20445;-69
2022/09/13 01:44:32;;;;;;;0.63;0.63;;;13.80;99.90;;;;;;5015225;28;20406;-70
2022/09/13 01:47:23;;;;;;;0.50;0.50;;;13.80;99.90;;;;;;5015213;28;20872;-69
2022/09/13 01:49:57;;;;;;;0.93;0.77;;;13.80;99.90;;;;;;5014345;28;20393;-71
2022/09/13 01:52:36;;;;;;;0.50;0.40;;;13.50;99.90;;;;;;5014380;28;20410;-71
2022/09/13 01:55:04;;;;;;;0.60;0.60;;;13.60;99.90;;;;;;5013661;28;20421;-69
2022/09/13 01:57:39;;;;;;;1.27;0.50;;;13.90;99.90;;;;;;5014864;28;20417;-71
2022/09/13 02:00:09;;;;;;;0.53;0.53;;;13.60;99.90;;;;;;5014433;28;20409;-69
2022/09/13 02:02:47;;;;;;;0.70;0.70;;;13.70;99.90;;;;;;5013802;28;20460;-69
2022/09/13 02:05:39;;;;;;;0.57;0.57;;;13.60;99.90;;;;;;5014914;28;20409;-72
2022/09/13 02:08:12;;;;;;;0.37;0.37;;;13.70;99.90;;;;;;5014469;28;20473;-70
2022/09/13 02:10:43;;;;;;;0.50;0.40;;;13.70;99.90;;;;;;5014264;28;20410;-69
2022/09/13 02:13:24;;;;;;;0.40;0.40;;;13.80;99.90;;;;;;5014436;28;20399;-70
2022/09/13 02:15:56;;;;;;;0.43;0.43;;;13.60;99.90;;;;;;5014513;28;20937;-71
2022/09/13 02:18:28;;;;;;;0.40;0.40;;;13.60;99.90;;;;;;5014315;28;20427;-71
2022/09/13 02:21:00;;;;;;;0.83;0.70;;;13.60;99.90;;;;;;5013944;28;20860;-71
2022/09/13 02:23:34;;;;;;;0.80;0.80;;;13.50;99.90;;;;;;5014118;28;20475;-72
2022/09/13 02:26:03;;;;;;;0.67;0.60;;;13.60;99.90;;;;;;5013953;28;20409;-70
2022/09/13 02:28:37;;;;;;;0.63;0.63;;;13.70;99.90;;;;;;5013945;28;20435;-71
2022/09/13 02:31:06;;;;;;;0.70;0.60;;;13.60;99.90;;;;;;5012533;28;20932;-70
2022/09/13 02:33:39;;;;;;;0.77;0.77;;;13.80;99.90;;;;;;5014142;28;20410;-71
2022/09/13 02:36:12;;;;;;;0.40;0.40;;;13.80;99.90;;;;;;5014153;28;20437;-72
2022/09/13 02:38:58;;;;;;;0.30;0.30;;;13.90;99.90;;;;;;5014254;28;20434;-70
2022/09/13 02:41:27;;;;;;;1.13;1.13;;;13.90;99.90;;;;;;5013628;28;20454;-71
2022/09/13 02:44:01;;;;;;;1.30;0.90;;;13.90;99.90;;;;;;5014186;28;20410;-70
2022/09/13 02:46:39;;;;;;;0.83;0.77;;;13.90;99.90;;;;;;5014079;28;20541;-70
2022/09/13 02:49:12;;;;;;;0.30;0.30;;;13.90;99.90;;;;;;5014287;28;20434;-72
2022/09/13 02:52:09;;;;;;;0.60;0.60;;;13.90;99.90;;;;;;5014161;28;20500;-71
2022/09/13 02:55:08;;;;;;;0.50;0.50;;;13.90;99.90;;;;;;4944180;28;20421;-72
2022/09/13 02:57:41;;;;;;;0.50;0.50;;;14.00;99.90;;;;;;5013536;28;20428;-70
2022/09/13 03:00:08;;;;;;;0.40;0.40;;;13.70;99.90;;;;;;5012303;28;20441;-72
2022/09/13 03:02:37;;;;;;;0.40;0.40;;;13.80;99.90;;;;;;5014028;28;20452;-69
2022/09/13 03:05:03;;;;;;;0.77;0.70;;;13.80;99.90;;;;;;5013961;28;20429;-71
2022/09/13 03:07:28;;;;;;;0.83;0.83;;;13.90;99.90;;;;;;5010431;28;20415;-71
2022/09/13 03:09:59;;;;;;;0.40;0.40;;;13.80;99.90;;;;;;5013407;28;20421;-72
2022/09/13 03:12:46;;;;;;;0.40;0.40;;;13.40;99.90;;;;;;5011305;28;20189;-70
2022/09/13 03:15:28;;;;;;;0.40;0.40;;;13.80;99.90;;;;;;5017314;28;20422;-71
2022/09/13 03:18:15;;;;;;;0.30;0.30;;;13.70;99.90;;;;;;5017645;28;20430;-72
2022/09/13 03:21:00;;;;;;;0.30;0.30;;;13.90;99.90;;;;;;5015531;28;20395;-70
2022/09/13 03:24:07;;;;;;;0.50;0.50;;;13.70;99.90;;;;;;5017129;28;20406;-69
2022/09/13 03:26:41;;;;;;;1.20;0.73;;;13.40;99.90;;;;;;4994789;28;20472;-70
2022/09/13 03:29:35;;;;;;;0.40;0.40;;;13.70;99.90;;;;;;5016009;28;20420;-72
2022/09/13 03:32:17;;;;;;;0.60;0.60;;;13.70;99.90;;;;;;5017243;28;20421;-70
2022/09/13 03:35:13;;;;;;;0.60;0.60;;;13.70;99.90;;;;;;5015582;28;20581;-68
2022/09/13 03:37:56;;;;;;;6.30;0.83;;;13.70;99.90;;;;;;5017632;28;20438;-70
2022/09/13 03:40:34;;;;;;;0.60;0.57;;;13.60;99.90;;;;;;5017183;28;20412;-69
2022/09/13 03:43:10;;;;;;;0.50;0.50;;;13.50;99.90;;;;;;5016450;28;20472;-71
2022/09/13 03:45:43;;;;;;;0.70;0.70;;;13.70;99.90;;;;;;5014592;28;20508;-71
2022/09/13 03:48:11;;;;;;;0.40;0.40;;;13.70;99.90;;;;;;5013358;28;20958;-69
2022/09/13 03:50:39;;;;;;;0.33;0.33;;;13.60;99.90;;;;;;5012784;28;20484;-69
2022/09/13 03:53:12;;;;;;;0.30;0.30;;;13.70;99.90;;;;;;5016174;28;20406;-71
2022/09/13 03:55:41;;;;;;;0.40;0.40;;;13.70;99.90;;;;;;5014502;28;20797;-69
2022/09/13 03:58:10;;;;;;;0.80;0.70;;;13.70;99.90;;;;;;5016535;28;20489;-70
2022/09/13 04:00:37;;;;;;;0.40;0.40;;;13.70;99.90;;;;;;5016226;28;20417;-70
2022/09/13 04:03:03;;;;;;;0.50;0.50;;;13.60;99.90;;;;;;5016652;28;20521;-72
2022/09/13 04:05:28;;;;;;;0.70;0.47;;;13.60;99.90;;;;;;5016414;28;20541;-70
2022/09/13 04:07:54;;;;;;;0.40;0.40;;;13.60;99.90;;;;;;5016562;28;20187;-69
2022/09/13 04:10:20;;;;;;;0.50;0.43;;;13.60;99.90;;;;;;5016143;28;20225;-70
2022/09/13 04:12:46;;;;;;;0.40;0.40;;;13.60;99.90;;;;;;5016430;28;20181;-70
2022/09/13 04:15:12;;;;;;;0.40;0.40;;;;;;;;;;5016145;28;20430;-70
2022/09/13 04:17:37;;;;;;;0.50;0.50;;;13.70;99.90;;;;;;5016083;28;20285;-70
2022/09/13 04:20:04;;;;;;;1.17;1.13;;;13.70;99.90;;;;;;5015990;28;20419;-71
2022/09/13 04:22:30;;;;;;;1.90;1.07;;;13.70;99.90;;;;;;5016128;28;20664;-69
2022/09/13 04:24:56;;;;;;;0.50;0.40;;;13.70;99.90;;;;;;5015352;28;20437;-71
2022/09/13 04:27:21;;;;;;;0.97;0.50;;;13.60;99.90;;;;;;5016152;28;20207;-69
2022/09/13 04:29:47;;;;;;;0.53;0.53;;;;;;;;;;5015811;28;20178;-69
2022/09/13 04:32:15;;;;;;;0.87;0.60;;;13.80;99.90;;;;;;5015914;28;20546;-71
2022/09/13 04:34:40;;;;;;;0.50;0.50;;;13.80;99.90;;;;;;5015950;28;20437;-69
2022/09/13 04:37:06;;;;;;;0.53;0.53;;;13.80;99.90;;;;;;5015905;28;20741;-72
2022/09/13 04:39:31;;;;;;;0.40;0.40;;;13.70;99.90;;;;;;5015744;28;20282;-70
2022/09/13 04:41:58;;;;;;;0.40;0.40;;;13.60;99.90;;;;;;5015876;28;20202;-69
2022/09/13 04:44:24;;;;;;;0.67;0.67;;;;;;;;;;5015919;28;20174;-71
2022/09/13 04:46:50;;;;;;;0.63;0.63;;;13.60;99.90;;;;;;5015642;28;20875;-69
2022/09/13 04:49:18;;;;;;;1.63;1.53;;;13.70;99.90;;;;;;5015555;28;20919;-70
2022/09/13 04:51:44;;;;;;;0.50;0.50;;;13.70;99.90;;;;;;5015483;28;20782;-71
2022/09/13 04:54:11;;;;;;;0.50;0.50;;;13.70;99.90;;;;;;5015569;28;20422;-69
2022/09/13 04:56:37;;;;;;;0.47;0.47;;;13.70;99.90;;;;;;5015609;28;20207;-71
2022/09/13 04:59:02;;;;;;;0.70;0.70;;;13.80;99.90;;;;;;5015556;28;20494;-69
2022/09/13 05:01:28;;;;;;;0.73;0.73;;;13.80;99.90;;;;;;5013927;28;20691;-69
2022/09/13 05:03:54;;;;;;;0.83;0.83;;;13.70;99.90;;;;;;5015426;28;20251;-72
2022/09/13 05:06:21;;;;;;;0.40;0.40;;;13.70;99.90;;;;;;5015270;28;20184;-70
2022/09/13 05:08:55;;;;;;;0.40;0.40;;;13.70;99.90;;;;;;5015397;28;20201;-70
2022/09/13 05:11:22;;;;;;;0.40;0.40;;;13.80;99.90;;;;;;5015009;28;20417;-72
2022/09/13 05:13:51;;;;;;;1.03;0.83;;;13.90;99.90;;;;;;5015027;28;20464;-70
2022/09/13 05:16:18;;;;;;;0.40;0.40;;;;;;;;;;5013926;28;20433;-70
2022/09/13 05:18:43;;;;;;;0.40;0.40;;;13.90;99.90;;;;;;5014902;28;20450;-72
2022/09/13 05:21:09;;;;;;;0.43;0.43;;;14.00;99.90;;;;;;5015001;28;20450;-70
2022/09/13 05:23:34;;;;;;;1.23;1.23;;;14.00;99.90;;;;;;5014988;28;20175;-72
2022/09/13 05:26:05;;;;;;;1.30;0.77;;;14.00;99.90;;;;;;5015063;28;20214;-71
2022/09/13 05:28:35;;;;;;;0.50;0.50;;;14.00;99.90;;;;;;5014868;28;20187;-71
2022/09/13 05:31:12;;;;;;;0.83;0.50;;;14.20;99.90;;;;;;5013415;28;20777;-71
2022/09/13 05:33:38;;;;;;;0.60;0.60;;;14.30;99.90;;;;;;5014962;28;20416;-69
2022/09/13 05:36:05;;;;;;;0.30;0.30;;;14.30;99.90;;;;;;5014924;28;20407;-72
2022/09/13 05:38:31;;;;;;;0.30;0.30;;;14.40;99.90;;;;;;5014685;28;20577;-69
2022/09/13 05:41:02;;;;;;;0.90;0.90;;;14.50;99.90;;;;;;5014388;28;20407;-71
2022/09/13 05:43:30;;;;;;;0.40;0.40;;;14.60;99.90;;;;;;5014828;28;20428;-70
2022/09/13 05:46:06;;;;;;;0.40;0.40;;;14.80;99.90;;;;;;5014645;28;20418;-70
2022/09/13 05:48:33;;;;;;;1.37;0.83;;;14.90;99.90;;;;;;5014567;28;20452;-71
2022/09/13 05:51:07;;;;;;;0.40;0.40;;;14.90;99.90;;;;;;5014194;28;20404;-69
2022/09/13 05:53:33;;;;;;;0.30;0.30;;;14.90;99.90;;;;;;5014403;28;20408;-70
2022/09/13 05:55:59;;;;;;;0.77;0.77;;;14.90;99.90;;;;;;5014435;28;20411;-69
2022/09/13 05:58:25;;;;;;;0.40;0.40;;;14.90;99.90;;;;;;5014368;28;20428;-71
2022/09/13 06:00:55;;;;;;;0.40;0.40;;;14.90;99.90;;;;;;5014162;28;20464;-70
2022/09/13 06:03:22;;;;;;;0.50;0.50;;;14.90;99.90;;;;;;5014225;28;20173;-69
2022/09/13 06:05:47;;;;;;;1.23;0.80;;;14.90;99.90;;;;;;5014368;28;20465;-72
2022/09/13 06:08:13;;;;;;;0.40;0.40;;;14.90;99.90;;;;;;5014280;28;20433;-71
2022/09/13 06:10:39;;;;;;;0.47;0.47;;;;;;;;;;5014094;28;20275;-69
2022/09/13 06:13:05;;;;;;;0.30;0.30;;;14.80;99.90;;;;;;5014434;28;20270;-70
2022/09/13 06:15:30;;;;;;;0.50;0.50;;;14.90;99.90;;;;;;5014166;28;20440;-71
2022/09/13 06:17:56;;;;;;;0.40;0.40;;;14.90;99.90;;;;;;5014180;28;20637;-69
2022/09/13 06:20:23;;;;;;;0.30;0.30;;;14.90;99.90;;;;;;5013854;28;20179;-70
2022/09/13 06:22:48;;;;;;;1.20;1.20;;;14.90;99.90;;;;;;5014328;28;20272;-70
2022/09/13 06:25:15;;;;;;;0.73;0.70;;;15.10;99.90;;;;;;5014034;28;20413;-70
2022/09/13 06:27:41;;;;;;;0.40;0.40;;;15.20;99.90;;;;;;5014546;28;20234;-71
2022/09/13 06:30:10;;;;;;;0.87;0.87;;;15.40;99.90;;;;;;5013751;28;20414;-70
2022/09/13 06:32:36;;;;;;;1.27;1.17;;;15.60;99.90;;;;;;5013810;28;20179;-70
2022/09/13 06:35:02;;;;;;;0.50;0.50;;;15.80;99.90;;;;;;5013840;28;20425;-70
2022/09/13 06:37:28;;;;;;;0.70;0.70;;;16.40;99.90;;;;;;5013766;28;20206;-69
2022/09/13 06:39:54;;;;;;;0.40;0.40;;;16.30;99.90;;;;;;5013671;28;20181;-71
2022/09/13 06:42:20;;;;;;;0.60;0.60;;;16.50;99.90;;;;;;5012401;28;20449;-71
2022/09/13 06:44:47;;;;;;;0.73;0.73;;;16.90;99.90;;;;;;5013944;28;20217;-71
2022/09/13 06:47:12;;;;;;;1.40;0.83;;;17.20;99.90;;;;;;5014807;28;20171;-71
2022/09/13 06:49:38;;;;;;;0.50;0.50;;;17.50;99.90;;;;;;5020012;28;20437;-72
2022/09/13 06:52:04;;;;;;;0.90;0.90;;;17.80;99.90;;;;;;5020235;28;20182;-69
2022/09/13 06:54:29;;;;;;;0.50;0.50;;;18.10;99.90;;;;;;5020709;28;20179;-71
2022/09/13 06:56:55;;;;;;;0.40;0.40;;;18.30;99.90;;;;;;5020323;28;20523;-71
2022/09/13 06:59:21;;;;;;;0.40;0.40;;;18.60;99.90;;;;;;5020121;28;20661;-70
2022/09/13 07:01:47;;;;;;;0.70;0.70;;;18.90;99.90;;;;;;5018378;28;20282;-71
2022/09/13 07:04:15;;;;;;;0.70;0.60;;;19.10;99.90;;;;;;5020662;28;20174;-71
2022/09/13 07:06:43;;;;;;;0.70;0.63;;;19.90;99.90;;;;;;5020338;28;20200;-70
2022/09/13 07:09:27;;;;;;;0.60;0.60;;;19.80;99.90;;;;;;5020405;28;20439;-70
2022/09/13 07:11:54;;;;;;;0.40;0.40;;;20.30;99.90;;;;;;5018172;28;20421;-70
2022/09/13 07:14:23;;;;;;;0.40;0.40;;;20.70;99.40;;;;;;5019992;28;20425;-71
2022/09/13 07:16:50;;;;;;;0.87;0.57;;;21.00;98.70;;;;;;5019946;28;20447;-72
2022/09/13 07:19:25;;;;;;;0.40;0.40;;;21.30;98.80;;;;;;5019847;28;20932;-70
2022/09/13 07:21:51;;;;;;;0.40;0.40;;;21.40;98.10;;;;;;5019788;28;20456;-72
2022/09/13 07:24:19;;;;;;;0.37;0.37;;;21.50;97.70;;;;;;5020073;28;20391;-72
2022/09/13 07:26:46;;;;;;;0.50;0.50;;;21.80;97.70;;;;;;5019987;28;20496;-72
2022/09/13 07:29:15;;;;;;;0.40;0.40;;;22.10;97.10;;;;;;5019953;28;20422;-72
2022/09/13 07:31:43;;;;;;;0.40;0.40;;;22.30;96.50;;;;;;5019738;28;20377;-70
2022/09/13 07:34:20;;;;;;;0.50;0.50;;;22.60;95.00;;;;;;5020055;28;20380;-71
2022/09/13 07:36:47;;;;;;;0.40;0.40;;;22.80;95.30;;;;;;5019958;28;20404;-71
2022/09/13 07:39:14;;;;;;;0.50;0.50;;;23.10;95.20;;;;;;5019609;28;20405;-71
2022/09/13 07:41:39;;;;;;;0.50;0.50;;;23.10;95.40;;;;;;5019522;28;20454;-71
2022/09/13 07:44:07;;;;;;;0.50;0.50;;;23.40;95.00;;;;;;5019809;28;20412;-72
2022/09/13 07:46:42;;;;;;;0.40;0.40;;;23.60;95.00;;;;;;5019911;28;20786;-70
2022/09/13 07:49:12;;;;;;;2.43;0.50;;;23.90;94.50;;;;;;5019668;28;20407;-72
2022/09/13 07:51:40;;;;;;;0.60;0.60;;;24.40;93.90;;;;;;5019757;28;20389;-71
2022/09/13 07:54:10;;;;;;;0.60;0.60;;;25.20;93.00;;;;;;5020071;28;20414;-72
2022/09/13 07:56:38;;;;;;;0.63;0.63;;;25.60;91.90;;;;;;5019523;28;20418;-72
2022/09/13 07:59:09;;;;;;;0.60;0.50;;;25.80;91.50;;;;;;5017561;28;20462;-71
2022/09/13 08:01:38;;;;;;;0.30;0.30;;;25.70;91.10;;;;;;5016484;28;20450;-71
2022/09/13 08:04:12;;;;;;;0.80;0.50;;;25.60;90.80;;;;;;5016530;28;20377;-71
2022/09/13 08:06:39;;;;;;;0.40;0.40;;;25.40;90.20;;;;;;5016643;28;20399;-72
2022/09/13 08:09:07;;;;;;;0.40;0.40;;;25.10;91.30;;;;;;5016300;28;20401;-71
2022/09/13 08:11:39;;;;;;;0.30;0.30;;;24.90;92.40;;;;;;5016189;28;20933;-72
2022/09/13 08:14:06;;;;;;;0.40;0.40;;;24.60;92.60;;;;;;5014574;28;20396;-72
2022/09/13 08:16:32;;;;;;;0.40;0.40;;;24.50;93.10;;;;;;5016227;28;20440;-72
2022/09/13 08:19:02;;;;;;;0.43;0.40;;;24.60;93.30;;;;;;5016596;28;20424;-72
2022/09/13 08:21:36;;;;;;;0.30;0.30;;;24.90;93.20;;;;;;5015536;28;20823;-71
2022/09/13 08:24:02;;;;;;;0.30;0.30;;;25.70;92.10;;;;;;5015199;28;20752;-72
2022/09/13 08:26:34;;;;;;;0.40;0.40;;;27.20;90.20;;;;;;5014023;28;20464;-71
2022/09/13 08:29:03;;;;;;;0.40;0.40;;;29.20;84.50;;;;;;5015952;28;20477;-71
2022/09/13 08:31:30;;;;;;;0.97;0.67;;;31.20;75.60;;;;;;5015071;28;20469;-70
2022/09/13 08:33:56;;;;;;;0.70;0.50;;;32.80;69.80;;;;;;5013527;28;20410;-71
2022/09/13 08:36:23;;;;;;;0.50;0.50;;;34.50;63.40;;;;;;5014864;28;20766;-70
2022/09/13 08:38:51;;;;;;;0.40;0.40;;;35.90;56.80;;;;;;5014883;28;20480;-70
2022/09/13 08:41:43;;;;;;;0.30;0.30;;;37.10;53.30;;;;;;5014683;28;20454;-70
2022/09/13 08:44:36;;;;;;;0.70;0.40;;;38.20;50.70;;;;;;5014907;28;20395;-71
2022/09/13 08:47:26;;;;;;;0.40;0.40;;;39.10;48.20;;;;;;5015196;28;20451;-70
2022/09/13 08:50:05;;;;;;;0.67;0.53;;;39.90;45.50;;;;;;5015557;28;20394;-71
2022/09/13 08:53:23;;;;;;;0.50;0.47;;;40.40;43.90;;;;;;5016069;28;20911;-70
2022/09/13 08:56:05;;;;;;;0.50;0.43;;;40.50;43.10;;;;;;4996771;28;20433;-71
2022/09/13 08:58:48;;;;;;;0.40;0.40;;;40.70;43.00;;;;;;5015431;28;20426;-71
2022/09/13 09:01:34;;;;;;;0.40;0.40;;;41.10;42.00;;;;;;5015216;28;20454;-70
2022/09/13 09:04:27;;;;;;;0.40;0.40;;;41.30;42.10;;;;;;5015430;28;20403;-69
2022/09/13 09:07:18;;;;;;;0.50;0.50;;;41.70;40.70;;;;;;5012551;28;20902;-70
2022/09/13 09:09:48;;;;;;;0.40;0.40;;;42.10;39.40;;;;;;5014690;28;20390;-71
2022/09/13 09:12:38;;;;;;;0.50;0.50;;;42.40;38.00;;;;;;5012424;28;20414;-70
2022/09/13 09:15:26;;;;;;;0.40;0.40;;;42.40;37.80;;;;;;5014995;28;20430;-70
2022/09/13 09:18:15;;;;;;;0.40;0.40;;;42.20;38.60;;;;;;5015018;28;20934;-69
2022/09/13 09:20:41;;;;;;;0.70;0.60;;;42.00;38.10;;;;;;5014838;28;20920;-71
2022/09/13 09:23:22;;;;;;;0.40;0.40;;;41.20;36.10;;;;;;5015134;28;20488;-71
2022/09/13 09:25:55;;;;;;;0.40;0.40;;;40.60;36.60;;;;;;5015369;28;20167;-71
2022/09/13 09:28:20;;;;;;;0.60;0.60;;;39.70;36.50;;;;;;5014973;28;20423;-71
2022/09/13 09:31:18;;;;;;;0.50;0.40;;;39.00;37.70;;;;;;5013188;28;20425;-70
2022/09/13 09:33:46;;;;;;;0.50;0.50;;;38.80;38.00;;;;;;4944461;28;20228;-71
2022/09/13 09:36:12;;;;;;;0.60;0.50;;;38.50;37.70;;;;;;5013455;28;20468;-70
2022/09/13 09:38:42;;;;;;;0.40;0.40;;;38.00;38.30;;;;;;5014482;28;20831;-70
2022/09/13 09:41:34;;;;;;;0.50;0.40;;;37.90;37.90;;;;;;5014713;28;20163;-70
2022/09/13 09:44:19;;;;;;;0.60;0.60;;;38.30;39.30;;;;;;5014781;28;20407;-71
2022/09/13 09:46:56;;;;;;;0.50;0.50;;;38.70;37.90;;;;;;5014486;28;20402;-70
2022/09/13 09:50:08;;;;;;;0.87;0.40;;;38.90;37.80;;;;;;5014475;28;20915;-69
2022/09/13 09:52:49;;;;;;;0.40;0.40;;;39.10;37.50;;;;;;5014666;28;20406;-70
2022/09/13 09:55:45;;;;;;;0.40;0.40;;;38.10;36.70;;;;;;5014481;28;20410;-71
2022/09/13 09:58:15;;;;;;;0.40;0.40;;;37.40;37.50;;;;;;5013169;28;20980;-69
2022/09/13 10:00:57;;;;;;;0.40;0.30;;;36.90;38.30;;;;;;5014546;28;20399;-70
2022/09/13 10:03:28;;;;;;;0.50;0.40;;;36.40;38.10;;;;;;5014323;28;20482;-71
2022/09/13 10:06:17;;;;;;;0.50;0.40;;;35.90;39.40;;;;;;5014687;28;20444;-70
2022/09/13 10:08:55;;;;;;;0.40;0.40;;;36.10;38.50;;;;;;5014155;28;20501;-70
2022/09/13 10:11:21;;;;;;;0.63;0.63;;;35.90;38.60;;;;;;5014000;28;20934;-69
2022/09/13 10:13:59;;;;;;;0.40;0.40;;;35.90;39.00;;;;;;5014225;28;20487;-71
2022/09/13 10:16:29;;;;;;;0.90;0.47;;;35.90;37.20;;;;;;5014177;28;20489;-70
2022/09/13 10:19:24;;;;;;;0.40;0.40;;;35.80;37.80;;;;;;5014515;28;20505;-70
2022/09/13 10:22:11;;;;;;;0.57;0.50;;;35.50;37.90;;;;;;5012289;28;20845;-69
2022/09/13 10:24:38;;;;;;;0.50;0.50;;;35.30;39.00;;;;;;5013905;28;20413;-70
2022/09/13 10:27:15;;;;;;;0.40;0.40;;;34.90;39.50;;;;;;5014144;28;20767;-71
2022/09/13 10:29:48;;;;;;;0.40;0.40;;;34.30;40.50;;;;;;5013789;28;20414;-70
2022/09/13 10:32:15;;;;;;;0.60;0.53;;;33.60;41.20;;;;;;5014005;28;20406;-70
2022/09/13 10:34:44;;;;;;;0.60;0.60;;;33.10;41.50;;;;;;5013882;28;20407;-70
2022/09/13 10:37:34;;;;;;;0.60;0.60;;;32.60;42.90;;;;;;5013789;28;20402;-70
2022/09/13 10:40:00;;;;;;;0.40;0.40;;;;;;;;;;5013719;28;20497;-71
2022/09/13 10:42:28;;;;;;;0.30;0.30;;;32.00;43.00;;;;;;5013736;28;20445;-70
2022/09/13 10:44:56;;;;;;;0.57;0.50;;;32.30;43.00;;;;;;5013898;28;20403;-69
2022/09/13 10:47:49;;;;;;;0.30;0.30;;;32.00;51.00;;;;;;5013646;28;20399;-70
2022/09/13 10:50:20;;;;;;;0.50;0.50;;;32.10;44.90;;;;;;5005432;28;20422;-70
2022/09/13 10:52:50;;;;;;;0.47;0.47;;;31.20;59.00;;;;;;5013882;28;20403;-70
2022/09/13 10:55:19;;;;;;;0.40;0.40;;;31.90;45.50;;;;;;5013830;28;20415;-71
2022/09/13 10:57:46;;;;;;;0.40;0.40;;;31.90;43.80;;;;;;5013498;28;20430;-70
2022/09/13 11:00:15;;;;;;;0.47;0.47;;;31.80;45.00;;;;;;5013115;28;20398;-69
2022/09/13 11:02:55;;;;;;;0.70;0.70;;;31.50;45.70;;;;;;5013972;28;20477;-69
2022/09/13 11:05:25;;;;;;;0.30;0.30;;;31.30;46.20;;;;;;5013318;28;20749;-69
2022/09/13 11:08:18;;;;;;;0.40;0.40;;;31.10;46.10;;;;;;5013802;28;20776;-69
2022/09/13 11:10:56;;;;;;;0.50;0.40;;;31.00;52.40;;;;;;5013679;28;20401;-69
2022/09/13 11:13:34;;;;;;;0.30;0.30;;;30.70;48.90;;;;;;5013824;28;20402;-69
2022/09/13 11:16:41;;;;;;;0.43;0.43;;;30.30;49.30;;;;;;5014016;28;20506;-69
2022/09/13 11:19:25;;;;;;;0.63;0.60;;;30.00;48.00;;;;;;4934107;29;20446;-69
2022/09/13 11:22:14;;;;;;;0.53;0.53;;;29.90;46.40;;;;;;4934265;29;20461;-69
2022/09/13 11:25:00;;;;;;;0.60;0.60;;;29.90;46.90;;;;;;5013440;28;20399;-69
2022/09/13 11:27:48;;;;;;;0.40;0.40;;;29.10;56.60;;;;;;5013489;28;20464;-69
2022/09/13 11:30:22;;;;;;;0.50;0.50;;;29.50;51.10;;;;;;5012654;28;20825;-69
2022/09/13 11:33:06;;;;;;;0.40;0.30;;;29.40;53.80;;;;;;5013434;28;20903;-70
2022/09/13 11:35:55;;;;;;;0.40;0.40;;;29.30;50.60;;;;;;5017325;28;20448;-69
2022/09/13 11:38:48;;;;;;;1.20;0.60;;;29.00;50.90;;;;;;4980083;28;20485;-69
2022/09/13 11:41:36;;;;;;;0.30;0.30;;;29.00;56.40;;;;;;5016717;28;21089;-70
2022/09/13 11:44:35;;;;;;;0.30;0.30;;;28.80;57.40;;;;;;5017071;28;20765;-69
2022/09/13 11:47:10;;;;;;;0.40;0.40;;;28.60;57.10;;;;;;5017037;28;20457;-70
2022/09/13 11:50:17;;;;;;;0.47;0.47;;;28.50;55.00;;;;;;5016573;28;20414;-69
2022/09/13 11:53:00;;;;;;;0.37;0.37;;;28.60;56.10;;;;;;4937262;29;20499;-70
2022/09/13 11:55:40;;;;;;;0.40;0.40;;;28.40;52.90;;;;;;5009599;28;20414;-70
2022/09/13 11:58:27;;;;;;;0.40;0.40;;;28.30;58.20;;;;;;5016570;28;20426;-70
2022/09/13 12:01:00;;;;;;;0.40;0.40;;;28.40;57.90;;;;;;5016591;28;20445;-68
2022/09/13 12:03:50;;;;;;;0.50;0.50;;;28.10;56.60;;;;;;5016733;28;20415;-70
2022/09/13 12:06:26;;;;;;;0.40;0.40;;;28.00;59.60;;;;;;5015870;28;20406;-70
2022/09/13 12:09:02;;;;;;;0.53;0.53;;;28.10;58.40;;;;;;5016503;28;20454;-68
2022/09/13 12:11:35;;;;;;;0.40;0.40;;;28.10;58.50;;;;;;5016472;28;20402;-69
2022/09/13 12:14:10;;;;;;;0.90;0.50;;;28.20;64.40;;;;;;5016349;28;20458;-70
2022/09/13 12:17:03;;;;;;;0.40;0.40;;;28.20;56.20;;;;;;5016670;28;20405;-69
2022/09/13 12:19:40;;;;;;;0.40;0.40;;;28.00;55.10;;;;;;5007747;28;20434;-69
2022/09/13 12:22:08;;;;;;;0.50;0.50;;;28.00;57.30;;;;;;5016281;28;20793;-69
2022/09/13 12:24:49;;;;;;;0.50;0.40;;;28.10;58.00;;;;;;5016158;28;20407;-70
2022/09/13 12:27:27;;;;;;;0.50;0.50;;;28.10;61.10;;;;;;5016426;28;20466;-68
2022/09/13 12:30:05;;;;;;;0.50;0.50;;;28.10;65.30;;;;;;5015354;28;20411;-71
2022/09/13 12:32:32;;;;;;;0.40;0.40;;;28.20;88.30;;;;;;5014544;28;20915;-71
2022/09/13 12:35:13;;;;;;;0.40;0.40;;;28.10;65.90;;;;;;5013654;28;20430;-71
2022/09/13 12:37:48;;;;;;;0.40;0.40;;;28.10;86.60;;;;;;5013355;28;20464;-71
2022/09/13 12:40:29;;;;;;;0.40;0.40;;;28.00;67.50;;;;;;5012508;28;20410;-71
2022/09/13 12:43:13;;;;;;;0.60;0.60;;;27.90;59.60;;;;;;5013784;28;20450;-72
2022/09/13 12:46:03;;;;;;;0.50;0.50;;;27.90;61.10;;;;;;5013162;28;20407;-72
2022/09/13 12:48:50;;;;;;;0.50;0.50;;;27.80;59.90;;;;;;5014974;28;20827;-71
2022/09/13 12:51:27;;;;;;;0.50;0.40;;;27.90;64.50;;;;;;5014511;28;20540;-72
2022/09/13 12:54:02;;;;;;;1.03;0.60;;;28.00;58.00;;;;;;5013894;28;20780;-71
2022/09/13 12:56:39;;;;;;;0.80;0.80;;;28.10;57.30;;;;;;5015608;28;20741;-70
2022/09/13 12:59:19;;;;;;;0.60;0.60;;;27.90;75.60;;;;;;5013689;28;20426;-71
2022/09/13 13:01:48;;;;;;;0.40;0.40;;;28.10;56.80;;;;;;5015300;28;20457;-72
2022/09/13 13:04:24;;;;;;;1.37;0.70;;;28.10;56.80;;;;;;5014085;28;20893;-71
2022/09/13 13:06:57;;;;;;;0.50;0.50;;;28.20;56.50;;;;;;5012279;28;20424;-71
2022/09/13 13:09:27;;;;;;;0.60;0.60;;;28.20;59.70;;;;;;5015767;28;20433;-70
2022/09/13 13:11:53;;;;;;;0.50;0.40;;;28.20;57.80;;;;;;5015106;28;20418;-72
2022/09/13 13:14:37;;;;;;;0.50;0.50;;;27.90;56.70;;;;;;5014975;28;20510;-71
2022/09/13 13:17:41;;;;;;;0.63;0.63;;;27.70;57.10;;;;;;5015189;28;20465;-72
2022/09/13 13:20:37;;;;;;;0.50;0.50;;;27.70;57.50;;;;;;5015161;28;20764;-71
2022/09/13 13:23:15;;;;;;;0.73;0.50;;;27.80;59.00;;;;;;5015546;28;20473;-71